Fargo, ND

7:14 PM CDT on June 02, 2015 (GMT -0500)
North Fargo | | Change Station
CLOSE
Current Station
Personal Weather Station
Location: Fargo, ND
Elevation: 899 ft
Nearby Weather Stations
Active Advisory: Flood Warning

Elev 899 ft 46.91 °N, 96.79 °W | Updated 1 minute ago

Overcast
Overcast
0.0 °F
Feels Like 0.0 °F
N
0.0
Wind Variable Wind from North
Gusts 0.0 mph

Today
High -- | Low -- °F
--% Chance of Precip.
Yesterday
High -- | Low -- °F
Precip. -- in
5:35 AM 9:14 PM
Full, 100% visible
Pressure 29.71 in
Visibility 10.0 miles
Clouds Mostly Cloudy 6000 ft
Overcast 7000 ft
Dew Point Not available.
Humidity Not available.
Rainfall 0.00 in
Snow Depth Not available.
UV 1 out of 12
Pollen 8.00 out of 12
Air Quality Not available.
Flu Activity Sporadic
METAR KFAR 022353Z 15007KT 10SM BKN060 OVC070 26/17 A2972 RMK AO2 SLP059 T02610172 10267 20206 56016

More Conditions Fewer Conditions

Pressure 29.71 in
Visibility 10.0 miles
Clouds Mostly Cloudy 6000 ft
Overcast 7000 ft
Dew Point Not available.
Humidity Not available.
Rainfall 0.00 in
Snow Depth Not available.
UV 1 out of 12
Pollen 8.00 out of 12
Air Quality Not available.
Flu Activity Sporadic
METAR KFAR 022353Z 15007KT 10SM BKN060 OVC070 26/17 A2972 RMK AO2 SLP059 T02610172 10267 20206 56016

More Conditions Fewer Conditions

10-Day Weather Forecast

×

Almanac

Astronomy

Jun. 02, 2015 Rise Set
Actual Time
Civil Twilight
Nautical Twilight
Astronomical Twilight
Moon
Length of Visible Light
Length of Day
Tomorrow will be .
, % of the Moon is Illuminated

Today's Extremes

State Highs State Lows

Community

WunderPhotos

Upload Photos

1,826,074 photos uploaded!

WunderBlogs® & News

Nearby

Air Quality

  Air Quality AQ Index Pollutant
Not available.

Snow Depth

Station Depth Elevation

Earthquake Activity

City Distance Mag. Time & Date
Minimum magnitude displayed is 2.5.

Coastal Water Temperatures

Place Temperature

Stations

Nearby Weather Stations

Station Location Temp. Windchill Dew Point Humidity Wind Precip. Elev Updated Type
                   
Flood Warning
Statement as of 8:45 AM CDT on June 02, 2015

The Flood Warning continues for...
* ... Fargo... on the Red River.
* Until Friday morning... or until the warning is cancelled.
* At 8:15 am Tuesday the stage was 19.0 feet.
* Minor flooding is occurring and during the next 7 days... minor
flooding is forecast.
* Minor flood stage is 18.0 feet.
* Forecast... the river will continue to fall to below flood stage by
Thursday morning.
* Impact statement(s) - at 19.0 feet, Fargo... low-level dam south of
main Avenue is underwater.


Daily 7am CDT/6am CST forecast stage in feet:

date Wed Thu Fri Sat sun Mon Tue
(month/day) 06/03 06/04 06/05 06/06 06/07 06/08 06/09

Red River
Fargo 18.6 17.8 17.1 16.9 16.7 16.5 16.4


Lat... Lon 4715 9673 4724 9683 4724 9694 4676 9689 4677 9671